sensor_id;sensor_type;location;lat;lon;timestamp;P1;durP1;ratioP1;P2;durP2;ratioP2
56943;SDS011;42848;42.524;12.052;2023-04-24T00:00:15;9.45;;;4.85;;
56943;SDS011;42848;42.524;12.052;2023-04-24T00:02:43;7.80;;;4.72;;
56943;SDS011;42848;42.524;12.052;2023-04-24T00:05:13;9.88;;;4.65;;
56943;SDS011;42848;42.524;12.052;2023-04-24T00:07:40;7.18;;;4.60;;
56943;SDS011;42848;42.524;12.052;2023-04-24T00:10:07;9.02;;;4.57;;
56943;SDS011;42848;42.524;12.052;2023-04-24T00:12:33;9.77;;;5.13;;
56943;SDS011;42848;42.524;12.052;2023-04-24T00:14:59;8.75;;;4.70;;
56943;SDS011;42848;42.524;12.052;2023-04-24T00:17:25;9.80;;;4.55;;
56943;SDS011;42848;42.524;12.052;2023-04-24T00:19:51;7.25;;;4.70;;
56943;SDS011;42848;42.524;12.052;2023-04-24T00:22:23;8.55;;;5.07;;
56943;SDS011;42848;42.524;12.052;2023-04-24T00:24:53;9.80;;;5.00;;
56943;SDS011;42848;42.524;12.052;2023-04-24T00:27:20;11.10;;;5.45;;
56943;SDS011;42848;42.524;12.052;2023-04-24T00:29:45;9.40;;;5.22;;
56943;SDS011;42848;42.524;12.052;2023-04-24T00:32:11;9.55;;;5.50;;
56943;SDS011;42848;42.524;12.052;2023-04-24T00:34:37;9.80;;;5.35;;
56943;SDS011;42848;42.524;12.052;2023-04-24T00:37:03;7.10;;;4.85;;
56943;SDS011;42848;42.524;12.052;2023-04-24T00:39:28;10.23;;;4.97;;
56943;SDS011;42848;42.524;12.052;2023-04-24T00:41:54;9.70;;;5.35;;
56943;SDS011;42848;42.524;12.052;2023-04-24T00:44:21;8.15;;;5.00;;
56943;SDS011;42848;42.524;12.052;2023-04-24T00:46:48;9.35;;;4.90;;
56943;SDS011;42848;42.524;12.052;2023-04-24T00:49:22;8.25;;;4.97;;
56943;SDS011;42848;42.524;12.052;2023-04-24T00:51:48;8.75;;;5.00;;
56943;SDS011;42848;42.524;12.052;2023-04-24T00:54:14;12.20;;;5.55;;
56943;SDS011;42848;42.524;12.052;2023-04-24T00:56:41;10.07;;;5.30;;
56943;SDS011;42848;42.524;12.052;2023-04-24T00:59:07;9.38;;;5.45;;
56943;SDS011;42848;42.524;12.052;2023-04-24T01:01:34;8.15;;;5.28;;
56943;SDS011;42848;42.524;12.052;2023-04-24T01:04:00;10.60;;;5.50;;
56943;SDS011;42848;42.524;12.052;2023-04-24T01:06:27;13.35;;;5.57;;
56943;SDS011;42848;42.524;12.052;2023-04-24T01:08:56;10.57;;;5.10;;
56943;SDS011;42848;42.524;12.052;2023-04-24T01:11:24;9.25;;;5.53;;
56943;SDS011;42848;42.524;12.052;2023-04-24T01:13:51;7.97;;;5.53;;
56943;SDS011;42848;42.524;12.052;2023-04-24T01:16:17;9.20;;;5.43;;
56943;SDS011;42848;42.524;12.052;2023-04-24T01:18:45;9.63;;;5.55;;
56943;SDS011;42848;42.524;12.052;2023-04-24T01:21:13;10.48;;;5.63;;
56943;SDS011;42848;42.524;12.052;2023-04-24T01:23:43;9.80;;;5.63;;
56943;SDS011;42848;42.524;12.052;2023-04-24T01:26:10;10.73;;;5.88;;
56943;SDS011;42848;42.524;12.052;2023-04-24T01:28:37;10.70;;;6.05;;
56943;SDS011;42848;42.524;12.052;2023-04-24T01:31:03;10.57;;;5.82;;
56943;SDS011;42848;42.524;12.052;2023-04-24T01:33:29;12.25;;;5.90;;
56943;SDS011;42848;42.524;12.052;2023-04-24T01:35:55;11.55;;;6.10;;
56943;SDS011;42848;42.524;12.052;2023-04-24T01:38:20;10.57;;;6.25;;
56943;SDS011;42848;42.524;12.052;2023-04-24T01:40:47;9.45;;;5.82;;
56943;SDS011;42848;42.524;12.052;2023-04-24T01:43:12;10.07;;;6.10;;
56943;SDS011;42848;42.524;12.052;2023-04-24T01:45:38;9.88;;;5.85;;
56943;SDS011;42848;42.524;12.052;2023-04-24T01:48:04;12.15;;;5.90;;
56943;SDS011;42848;42.524;12.052;2023-04-24T01:50:30;13.75;;;6.35;;
56943;SDS011;42848;42.524;12.052;2023-04-24T01:52:56;11.43;;;6.07;;
56943;SDS011;42848;42.524;12.052;2023-04-24T01:55:22;11.35;;;5.80;;
56943;SDS011;42848;42.524;12.052;2023-04-24T01:57:48;9.15;;;5.68;;
56943;SDS011;42848;42.524;12.052;2023-04-24T02:00:15;12.65;;;6.10;;
56943;SDS011;42848;42.524;12.052;2023-04-24T02:02:41;11.23;;;5.63;;
56943;SDS011;42848;42.524;12.052;2023-04-24T02:05:07;13.05;;;6.00;;
56943;SDS011;42848;42.524;12.052;2023-04-24T02:07:34;12.15;;;5.78;;
56943;SDS011;42848;42.524;12.052;2023-04-24T02:10:00;10.18;;;6.18;;
56943;SDS011;42848;42.524;12.052;2023-04-24T02:12:26;10.43;;;5.93;;
56943;SDS011;42848;42.524;12.052;2023-04-24T02:14:52;9.60;;;5.55;;
56943;SDS011;42848;42.524;12.052;2023-04-24T02:17:17;10.93;;;5.40;;
56943;SDS011;42848;42.524;12.052;2023-04-24T02:19:44;10.98;;;5.88;;
56943;SDS011;42848;42.524;12.052;2023-04-24T02:22:10;9.10;;;5.30;;
56943;SDS011;42848;42.524;12.052;2023-04-24T02:24:36;11.10;;;5.35;;
56943;SDS011;42848;42.524;12.052;2023-04-24T02:27:03;12.02;;;5.75;;
56943;SDS011;42848;42.524;12.052;2023-04-24T02:29:28;12.13;;;5.75;;
56943;SDS011;42848;42.524;12.052;2023-04-24T02:31:54;9.90;;;5.10;;
56943;SDS011;42848;42.524;12.052;2023-04-24T02:34:20;10.65;;;5.43;;
56943;SDS011;42848;42.524;12.052;2023-04-24T02:36:46;10.07;;;5.30;;
56943;SDS011;42848;42.524;12.052;2023-04-24T02:39:11;12.90;;;5.80;;
56943;SDS011;42848;42.524;12.052;2023-04-24T02:41:38;10.82;;;5.40;;
56943;SDS011;42848;42.524;12.052;2023-04-24T02:44:04;10.50;;;5.18;;
56943;SDS011;42848;42.524;12.052;2023-04-24T02:46:29;10.23;;;5.32;;
56943;SDS011;42848;42.524;12.052;2023-04-24T02:48:55;10.00;;;4.97;;
56943;SDS011;42848;42.524;12.052;2023-04-24T02:51:21;10.90;;;5.50;;
56943;SDS011;42848;42.524;12.052;2023-04-24T02:53:46;10.70;;;5.03;;
56943;SDS011;42848;42.524;12.052;2023-04-24T02:56:12;11.05;;;5.05;;
56943;SDS011;42848;42.524;12.052;2023-04-24T02:58:38;8.80;;;5.45;;
56943;SDS011;42848;42.524;12.052;2023-04-24T03:01:04;11.25;;;5.57;;
56943;SDS011;42848;42.524;12.052;2023-04-24T03:03:30;10.82;;;5.20;;
56943;SDS011;42848;42.524;12.052;2023-04-24T03:05:56;10.70;;;5.35;;
56943;SDS011;42848;42.524;12.052;2023-04-24T03:08:22;10.00;;;5.25;;
56943;SDS011;42848;42.524;12.052;2023-04-24T03:10:48;11.52;;;5.57;;
56943;SDS011;42848;42.524;12.052;2023-04-24T03:13:15;11.60;;;5.80;;
56943;SDS011;42848;42.524;12.052;2023-04-24T03:15:41;10.75;;;5.55;;
56943;SDS011;42848;42.524;12.052;2023-04-24T03:18:07;9.88;;;5.78;;
56943;SDS011;42848;42.524;12.052;2023-04-24T03:20:33;11.60;;;5.35;;
56943;SDS011;42848;42.524;12.052;2023-04-24T03:22:58;10.05;;;5.72;;
56943;SDS011;42848;42.524;12.052;2023-04-24T03:25:24;11.32;;;5.75;;
56943;SDS011;42848;42.524;12.052;2023-04-24T03:27:50;11.45;;;5.85;;
56943;SDS011;42848;42.524;12.052;2023-04-24T03:30:16;11.27;;;5.88;;
56943;SDS011;42848;42.524;12.052;2023-04-24T03:32:42;8.85;;;5.28;;
56943;SDS011;42848;42.524;12.052;2023-04-24T03:35:07;11.63;;;5.65;;
56943;SDS011;42848;42.524;12.052;2023-04-24T03:37:33;10.73;;;5.85;;
56943;SDS011;42848;42.524;12.052;2023-04-24T03:39:59;13.23;;;5.85;;
56943;SDS011;42848;42.524;12.052;2023-04-24T03:42:26;12.63;;;6.05;;
56943;SDS011;42848;42.524;12.052;2023-04-24T03:44:51;11.90;;;5.75;;
56943;SDS011;42848;42.524;12.052;2023-04-24T03:47:17;13.98;;;5.85;;
56943;SDS011;42848;42.524;12.052;2023-04-24T03:49:43;11.80;;;6.07;;
56943;SDS011;42848;42.524;12.052;2023-04-24T03:52:08;10.77;;;5.78;;
56943;SDS011;42848;42.524;12.052;2023-04-24T03:54:34;11.18;;;5.53;;
56943;SDS011;42848;42.524;12.052;2023-04-24T03:57:00;10.60;;;5.72;;
56943;SDS011;42848;42.524;12.052;2023-04-24T03:59:26;8.70;;;6.03;;
56943;SDS011;42848;42.524;12.052;2023-04-24T04:01:52;10.50;;;5.65;;
56943;SDS011;42848;42.524;12.052;2023-04-24T04:04:18;8.70;;;5.70;;
56943;SDS011;42848;42.524;12.052;2023-04-24T04:06:44;11.57;;;5.95;;
56943;SDS011;42848;42.524;12.052;2023-04-24T04:09:11;10.27;;;6.00;;
56943;SDS011;42848;42.524;12.052;2023-04-24T04:11:37;13.98;;;6.30;;
56943;SDS011;42848;42.524;12.052;2023-04-24T04:14:03;11.07;;;6.32;;
56943;SDS011;42848;42.524;12.052;2023-04-24T04:16:30;9.27;;;6.25;;
56943;SDS011;42848;42.524;12.052;2023-04-24T04:18:56;10.52;;;5.95;;
56943;SDS011;42848;42.524;12.052;2023-04-24T04:21:21;11.20;;;6.07;;
56943;SDS011;42848;42.524;12.052;2023-04-24T04:23:47;12.32;;;6.03;;
56943;SDS011;42848;42.524;12.052;2023-04-24T04:26:13;11.52;;;6.00;;
56943;SDS011;42848;42.524;12.052;2023-04-24T04:28:39;10.15;;;6.00;;
56943;SDS011;42848;42.524;12.052;2023-04-24T04:31:05;11.38;;;6.40;;
56943;SDS011;42848;42.524;12.052;2023-04-24T04:33:33;9.13;;;6.07;;
56943;SDS011;42848;42.524;12.052;2023-04-24T04:35:59;6.50;;;4.40;;
56943;SDS011;42848;42.524;12.052;2023-04-24T04:38:25;7.88;;;4.72;;
56943;SDS011;42848;42.524;12.052;2023-04-24T04:40:55;9.05;;;5.60;;
56943;SDS011;42848;42.524;12.052;2023-04-24T04:43:24;11.07;;;6.47;;
56943;SDS011;42848;42.524;12.052;2023-04-24T04:45:50;11.40;;;6.43;;
56943;SDS011;42848;42.524;12.052;2023-04-24T04:48:17;12.82;;;6.50;;
56943;SDS011;42848;42.524;12.052;2023-04-24T04:50:44;12.07;;;6.13;;
56943;SDS011;42848;42.524;12.052;2023-04-24T04:53:10;12.07;;;6.20;;
56943;SDS011;42848;42.524;12.052;2023-04-24T04:55:36;10.75;;;6.10;;
56943;SDS011;42848;42.524;12.052;2023-04-24T04:58:02;12.10;;;6.50;;
56943;SDS011;42848;42.524;12.052;2023-04-24T05:00:27;13.23;;;6.05;;
56943;SDS011;42848;42.524;12.052;2023-04-24T05:02:58;10.63;;;5.75;;
56943;SDS011;42848;42.524;12.052;2023-04-24T05:05:24;10.70;;;6.18;;
56943;SDS011;42848;42.524;12.052;2023-04-24T05:07:50;12.98;;;5.95;;
56943;SDS011;42848;42.524;12.052;2023-04-24T05:10:15;10.82;;;5.75;;
56943;SDS011;42848;42.524;12.052;2023-04-24T05:12:41;13.13;;;5.70;;
56943;SDS011;42848;42.524;12.052;2023-04-24T05:15:07;10.65;;;5.80;;
56943;SDS011;42848;42.524;12.052;2023-04-24T05:17:33;10.15;;;5.60;;
56943;SDS011;42848;42.524;12.052;2023-04-24T05:19:58;11.25;;;5.65;;
56943;SDS011;42848;42.524;12.052;2023-04-24T05:22:24;10.13;;;5.78;;
56943;SDS011;42848;42.524;12.052;2023-04-24T05:24:50;13.10;;;6.35;;
56943;SDS011;42848;42.524;12.052;2023-04-24T05:27:15;11.23;;;6.03;;
56943;SDS011;42848;42.524;12.052;2023-04-24T05:29:41;11.75;;;6.20;;
56943;SDS011;42848;42.524;12.052;2023-04-24T05:32:07;9.88;;;5.70;;
56943;SDS011;42848;42.524;12.052;2023-04-24T05:34:32;12.18;;;5.50;;
56943;SDS011;42848;42.524;12.052;2023-04-24T05:36:58;11.50;;;5.63;;
56943;SDS011;42848;42.524;12.052;2023-04-24T05:39:24;9.73;;;5.65;;
56943;SDS011;42848;42.524;12.052;2023-04-24T05:41:52;11.38;;;6.10;;
56943;SDS011;42848;42.524;12.052;2023-04-24T05:44:18;9.70;;;5.65;;
56943;SDS011;42848;42.524;12.052;2023-04-24T05:46:43;11.85;;;6.03;;
56943;SDS011;42848;42.524;12.052;2023-04-24T05:49:09;10.50;;;6.15;;
56943;SDS011;42848;42.524;12.052;2023-04-24T05:51:35;11.75;;;6.20;;
56943;SDS011;42848;42.524;12.052;2023-04-24T05:54:01;10.23;;;5.78;;
56943;SDS011;42848;42.524;12.052;2023-04-24T05:56:28;10.05;;;5.90;;
56943;SDS011;42848;42.524;12.052;2023-04-24T05:58:55;24.60;;;16.23;;
56943;SDS011;42848;42.524;12.052;2023-04-24T06:01:20;16.08;;;9.85;;
56943;SDS011;42848;42.524;12.052;2023-04-24T06:03:46;10.73;;;6.53;;
56943;SDS011;42848;42.524;12.052;2023-04-24T06:06:12;14.80;;;8.68;;
56943;SDS011;42848;42.524;12.052;2023-04-24T06:08:38;11.82;;;7.50;;
56943;SDS011;42848;42.524;12.052;2023-04-24T06:11:03;12.40;;;6.10;;
56943;SDS011;42848;42.524;12.052;2023-04-24T06:13:29;11.32;;;5.75;;
56943;SDS011;42848;42.524;12.052;2023-04-24T06:15:54;10.23;;;5.97;;
56943;SDS011;42848;42.524;12.052;2023-04-24T06:18:20;9.48;;;5.57;;
56943;SDS011;42848;42.524;12.052;2023-04-24T06:20:46;10.10;;;6.20;;
56943;SDS011;42848;42.524;12.052;2023-04-24T06:23:12;10.40;;;5.80;;
56943;SDS011;42848;42.524;12.052;2023-04-24T06:25:38;9.88;;;5.70;;
56943;SDS011;42848;42.524;12.052;2023-04-24T06:28:04;8.75;;;5.60;;
56943;SDS011;42848;42.524;12.052;2023-04-24T06:30:30;10.38;;;5.82;;
56943;SDS011;42848;42.524;12.052;2023-04-24T06:32:56;9.70;;;6.50;;
56943;SDS011;42848;42.524;12.052;2023-04-24T06:35:22;16.60;;;9.70;;
56943;SDS011;42848;42.524;12.052;2023-04-24T06:37:47;13.02;;;6.07;;
56943;SDS011;42848;42.524;12.052;2023-04-24T06:40:13;10.30;;;5.72;;
56943;SDS011;42848;42.524;12.052;2023-04-24T06:42:39;11.85;;;5.95;;
56943;SDS011;42848;42.524;12.052;2023-04-24T06:45:05;12.63;;;5.90;;
56943;SDS011;42848;42.524;12.052;2023-04-24T06:47:31;11.82;;;6.35;;
56943;SDS011;42848;42.524;12.052;2023-04-24T06:49:57;11.77;;;6.20;;
56943;SDS011;42848;42.524;12.052;2023-04-24T06:52:23;10.95;;;5.85;;
56943;SDS011;42848;42.524;12.052;2023-04-24T06:54:48;17.08;;;6.25;;
56943;SDS011;42848;42.524;12.052;2023-04-24T06:57:14;13.20;;;7.30;;
56943;SDS011;42848;42.524;12.052;2023-04-24T06:59:41;14.77;;;7.47;;
56943;SDS011;42848;42.524;12.052;2023-04-24T07:02:07;11.82;;;5.95;;
56943;SDS011;42848;42.524;12.052;2023-04-24T07:04:33;16.33;;;6.40;;
56943;SDS011;42848;42.524;12.052;2023-04-24T07:06:59;15.50;;;6.90;;
56943;SDS011;42848;42.524;12.052;2023-04-24T07:09:25;14.55;;;7.10;;
56943;SDS011;42848;42.524;12.052;2023-04-24T07:11:51;14.43;;;7.00;;
56943;SDS011;42848;42.524;12.052;2023-04-24T07:14:18;18.08;;;7.30;;
56943;SDS011;42848;42.524;12.052;2023-04-24T07:16:45;16.05;;;7.43;;
56943;SDS011;42848;42.524;12.052;2023-04-24T07:19:12;15.20;;;7.35;;
56943;SDS011;42848;42.524;12.052;2023-04-24T07:21:39;14.40;;;7.25;;
56943;SDS011;42848;42.524;12.052;2023-04-24T07:24:04;14.40;;;6.70;;
56943;SDS011;42848;42.524;12.052;2023-04-24T07:26:30;12.13;;;6.60;;
56943;SDS011;42848;42.524;12.052;2023-04-24T07:28:56;14.02;;;6.68;;
56943;SDS011;42848;42.524;12.052;2023-04-24T07:31:22;11.63;;;6.45;;
56943;SDS011;42848;42.524;12.052;2023-04-24T07:33:48;14.25;;;6.57;;
56943;SDS011;42848;42.524;12.052;2023-04-24T07:36:14;13.15;;;6.50;;
56943;SDS011;42848;42.524;12.052;2023-04-24T07:38:46;12.20;;;6.68;;
56943;SDS011;42848;42.524;12.052;2023-04-24T07:41:12;15.68;;;6.55;;
56943;SDS011;42848;42.524;12.052;2023-04-24T07:43:39;14.38;;;6.57;;
56943;SDS011;42848;42.524;12.052;2023-04-24T07:46:05;15.02;;;6.47;;
56943;SDS011;42848;42.524;12.052;2023-04-24T07:48:31;13.40;;;6.28;;
56943;SDS011;42848;42.524;12.052;2023-04-24T07:50:57;15.63;;;6.38;;
56943;SDS011;42848;42.524;12.052;2023-04-24T07:53:23;13.65;;;5.95;;
56943;SDS011;42848;42.524;12.052;2023-04-24T07:55:48;13.38;;;6.32;;
56943;SDS011;42848;42.524;12.052;2023-04-24T07:58:14;11.88;;;6.07;;
56943;SDS011;42848;42.524;12.052;2023-04-24T08:00:40;12.18;;;5.93;;
56943;SDS011;42848;42.524;12.052;2023-04-24T08:03:06;14.65;;;5.90;;
56943;SDS011;42848;42.524;12.052;2023-04-24T08:05:31;14.85;;;5.93;;
56943;SDS011;42848;42.524;12.052;2023-04-24T08:07:58;13.77;;;5.88;;
56943;SDS011;42848;42.524;12.052;2023-04-24T08:10:24;13.35;;;6.13;;
56943;SDS011;42848;42.524;12.052;2023-04-24T08:12:50;14.68;;;6.10;;
56943;SDS011;42848;42.524;12.052;2023-04-24T08:15:16;12.20;;;5.75;;
56943;SDS011;42848;42.524;12.052;2023-04-24T08:17:42;11.77;;;6.05;;
56943;SDS011;42848;42.524;12.052;2023-04-24T08:20:08;12.52;;;6.30;;
56943;SDS011;42848;42.524;12.052;2023-04-24T08:22:41;12.85;;;5.85;;
56943;SDS011;42848;42.524;12.052;2023-04-24T08:25:08;14.50;;;5.75;;
56943;SDS011;42848;42.524;12.052;2023-04-24T08:27:35;12.57;;;5.53;;
56943;SDS011;42848;42.524;12.052;2023-04-24T08:30:04;12.18;;;5.40;;
56943;SDS011;42848;42.524;12.052;2023-04-24T08:32:31;13.07;;;5.55;;
56943;SDS011;42848;42.524;12.052;2023-04-24T08:34:57;11.75;;;5.45;;
56943;SDS011;42848;42.524;12.052;2023-04-24T08:37:25;13.82;;;5.35;;
56943;SDS011;42848;42.524;12.052;2023-04-24T08:39:52;12.20;;;4.97;;
56943;SDS011;42848;42.524;12.052;2023-04-24T08:42:18;11.27;;;5.13;;
56943;SDS011;42848;42.524;12.052;2023-04-24T08:44:45;9.90;;;4.80;;
56943;SDS011;42848;42.524;12.052;2023-04-24T08:47:11;11.52;;;4.95;;
56943;SDS011;42848;42.524;12.052;2023-04-24T08:49:37;11.18;;;4.68;;
56943;SDS011;42848;42.524;12.052;2023-04-24T08:52:07;11.15;;;5.07;;
56943;SDS011;42848;42.524;12.052;2023-04-24T08:54:33;10.98;;;5.18;;
56943;SDS011;42848;42.524;12.052;2023-04-24T08:57:00;9.82;;;4.82;;
56943;SDS011;42848;42.524;12.052;2023-04-24T08:59:28;10.15;;;4.70;;
56943;SDS011;42848;42.524;12.052;2023-04-24T09:01:59;13.75;;;6.65;;
56943;SDS011;42848;42.524;12.052;2023-04-24T09:04:25;8.57;;;4.10;;
56943;SDS011;42848;42.524;12.052;2023-04-24T09:06:52;9.68;;;5.28;;
56943;SDS011;42848;42.524;12.052;2023-04-24T09:09:21;8.80;;;4.43;;
56943;SDS011;42848;42.524;12.052;2023-04-24T09:11:48;10.65;;;4.45;;
56943;SDS011;42848;42.524;12.052;2023-04-24T09:14:15;8.07;;;4.68;;
56943;SDS011;42848;42.524;12.052;2023-04-24T09:16:41;12.90;;;5.30;;
56943;SDS011;42848;42.524;12.052;2023-04-24T09:19:07;12.00;;;5.43;;
56943;SDS011;42848;42.524;12.052;2023-04-24T09:21:33;10.85;;;5.30;;
56943;SDS011;42848;42.524;12.052;2023-04-24T09:24:01;12.80;;;5.00;;
56943;SDS011;42848;42.524;12.052;2023-04-24T09:26:34;9.50;;;4.70;;
56943;SDS011;42848;42.524;12.052;2023-04-24T09:29:01;11.30;;;4.88;;
56943;SDS011;42848;42.524;12.052;2023-04-24T09:31:29;10.98;;;5.10;;
56943;SDS011;42848;42.524;12.052;2023-04-24T09:33:56;12.10;;;5.57;;
56943;SDS011;42848;42.524;12.052;2023-04-24T09:36:30;12.05;;;5.28;;
56943;SDS011;42848;42.524;12.052;2023-04-24T09:38:58;9.82;;;4.72;;
56943;SDS011;42848;42.524;12.052;2023-04-24T09:41:28;9.10;;;4.72;;
56943;SDS011;42848;42.524;12.052;2023-04-24T09:43:54;11.27;;;4.75;;
56943;SDS011;42848;42.524;12.052;2023-04-24T09:46:21;10.48;;;4.63;;
56943;SDS011;42848;42.524;12.052;2023-04-24T09:48:54;17.35;;;5.60;;
56943;SDS011;42848;42.524;12.052;2023-04-24T09:51:19;13.00;;;5.70;;
56943;SDS011;42848;42.524;12.052;2023-04-24T09:54:00;11.50;;;5.00;;
56943;SDS011;42848;42.524;12.052;2023-04-24T09:56:26;10.23;;;4.97;;
56943;SDS011;42848;42.524;12.052;2023-04-24T09:58:52;11.40;;;5.60;;
56943;SDS011;42848;42.524;12.052;2023-04-24T10:01:29;12.32;;;5.35;;
56943;SDS011;42848;42.524;12.052;2023-04-24T10:03:56;10.15;;;5.10;;
56943;SDS011;42848;42.524;12.052;2023-04-24T10:06:21;11.40;;;5.00;;
56943;SDS011;42848;42.524;12.052;2023-04-24T10:08:47;11.80;;;5.07;;
56943;SDS011;42848;42.524;12.052;2023-04-24T10:11:16;14.40;;;5.00;;
56943;SDS011;42848;42.524;12.052;2023-04-24T10:13:42;10.82;;;4.53;;
56943;SDS011;42848;42.524;12.052;2023-04-24T10:16:08;9.73;;;4.95;;
56943;SDS011;42848;42.524;12.052;2023-04-24T10:18:35;10.32;;;4.60;;
56943;SDS011;42848;42.524;12.052;2023-04-24T10:21:01;8.18;;;4.13;;
56943;SDS011;42848;42.524;12.052;2023-04-24T10:23:28;11.13;;;4.10;;
56943;SDS011;42848;42.524;12.052;2023-04-24T10:25:55;14.45;;;6.07;;
56943;SDS011;42848;42.524;12.052;2023-04-24T10:28:22;8.82;;;4.43;;
56943;SDS011;42848;42.524;12.052;2023-04-24T10:30:50;9.40;;;3.88;;
56943;SDS011;42848;42.524;12.052;2023-04-24T10:33:19;9.27;;;4.13;;
56943;SDS011;42848;42.524;12.052;2023-04-24T10:35:48;10.27;;;4.43;;
56943;SDS011;42848;42.524;12.052;2023-04-24T10:38:22;7.47;;;3.60;;
56943;SDS011;42848;42.524;12.052;2023-04-24T10:40:51;10.98;;;3.70;;
56943;SDS011;42848;42.524;12.052;2023-04-24T10:43:32;9.48;;;3.80;;
56943;SDS011;42848;42.524;12.052;2023-04-24T10:46:02;7.90;;;3.50;;
56943;SDS011;42848;42.524;12.052;2023-04-24T10:48:29;8.60;;;3.60;;
56943;SDS011;42848;42.524;12.052;2023-04-24T10:50:55;6.70;;;3.35;;
56943;SDS011;42848;42.524;12.052;2023-04-24T10:53:22;8.13;;;3.33;;
56943;SDS011;42848;42.524;12.052;2023-04-24T10:56:08;8.18;;;3.50;;
56943;SDS011;42848;42.524;12.052;2023-04-24T10:58:41;7.30;;;3.13;;
56943;SDS011;42848;42.524;12.052;2023-04-24T11:01:30;12.53;;;5.70;;
56943;SDS011;42848;42.524;12.052;2023-04-24T11:04:01;8.85;;;3.20;;
56943;SDS011;42848;42.524;12.052;2023-04-24T11:09:01;6.72;;;3.30;;
56943;SDS011;42848;42.524;12.052;2023-04-24T11:11:31;11.07;;;3.45;;
56943;SDS011;42848;42.524;12.052;2023-04-24T11:21:38;7.38;;;3.33;;
56943;SDS011;42848;42.524;12.052;2023-04-24T11:24:27;9.55;;;3.50;;
56943;SDS011;42848;42.524;12.052;2023-04-24T11:29:39;10.95;;;3.35;;
56943;SDS011;42848;42.524;12.052;2023-04-24T11:34:50;10.98;;;3.70;;
56943;SDS011;42848;42.524;12.052;2023-04-24T11:37:19;9.32;;;4.10;;
56943;SDS011;42848;42.524;12.052;2023-04-24T11:39:45;9.02;;;3.75;;
56943;SDS011;42848;42.524;12.052;2023-04-24T11:42:13;7.40;;;3.67;;
56943;SDS011;42848;42.524;12.052;2023-04-24T11:44:41;8.05;;;2.97;;
56943;SDS011;42848;42.524;12.052;2023-04-24T11:47:08;6.82;;;3.20;;
56943;SDS011;42848;42.524;12.052;2023-04-24T11:49:36;11.60;;;5.53;;
56943;SDS011;42848;42.524;12.052;2023-04-24T11:52:02;11.38;;;4.95;;
56943;SDS011;42848;42.524;12.052;2023-04-24T11:54:29;10.00;;;3.95;;
56943;SDS011;42848;42.524;12.052;2023-04-24T11:56:55;7.68;;;3.55;;
56943;SDS011;42848;42.524;12.052;2023-04-24T11:59:21;8.35;;;3.20;;
56943;SDS011;42848;42.524;12.052;2023-04-24T12:01:47;7.28;;;2.90;;
56943;SDS011;42848;42.524;12.052;2023-04-24T12:04:15;8.73;;;3.13;;
56943;SDS011;42848;42.524;12.052;2023-04-24T12:09:43;6.80;;;3.70;;
56943;SDS011;42848;42.524;12.052;2023-04-24T12:12:13;8.10;;;3.63;;
56943;SDS011;42848;42.524;12.052;2023-04-24T12:14:58;10.75;;;3.60;;
56943;SDS011;42848;42.524;12.052;2023-04-24T12:17:25;6.05;;;3.50;;
56943;SDS011;42848;42.524;12.052;2023-04-24T12:19:56;9.60;;;3.78;;
56943;SDS011;42848;42.524;12.052;2023-04-24T12:22:23;8.13;;;3.60;;
56943;SDS011;42848;42.524;12.052;2023-04-24T12:24:56;6.97;;;2.60;;
56943;SDS011;42848;42.524;12.052;2023-04-24T12:27:26;7.82;;;2.63;;
56943;SDS011;42848;42.524;12.052;2023-04-24T12:29:58;5.75;;;2.38;;
56943;SDS011;42848;42.524;12.052;2023-04-24T12:32:25;4.93;;;2.20;;
56943;SDS011;42848;42.524;12.052;2023-04-24T12:34:54;6.93;;;2.60;;
56943;SDS011;42848;42.524;12.052;2023-04-24T12:37:22;6.75;;;2.50;;
56943;SDS011;42848;42.524;12.052;2023-04-24T12:39:58;6.63;;;2.53;;
56943;SDS011;42848;42.524;12.052;2023-04-24T12:42:33;5.70;;;2.50;;
56943;SDS011;42848;42.524;12.052;2023-04-24T12:45:01;5.00;;;2.15;;
56943;SDS011;42848;42.524;12.052;2023-04-24T12:47:30;9.38;;;2.50;;
56943;SDS011;42848;42.524;12.052;2023-04-24T12:49:57;4.35;;;2.15;;
56943;SDS011;42848;42.524;12.052;2023-04-24T12:52:24;3.75;;;1.90;;
56943;SDS011;42848;42.524;12.052;2023-04-24T12:54:54;2.85;;;1.63;;
56943;SDS011;42848;42.524;12.052;2023-04-24T12:57:21;5.45;;;1.70;;
56943;SDS011;42848;42.524;12.052;2023-04-24T12:59:48;2.63;;;1.50;;
56943;SDS011;42848;42.524;12.052;2023-04-24T13:02:14;4.57;;;1.67;;
56943;SDS011;42848;42.524;12.052;2023-04-24T13:04:43;3.03;;;2.00;;
56943;SDS011;42848;42.524;12.052;2023-04-24T13:07:11;5.45;;;1.90;;
56943;SDS011;42848;42.524;12.052;2023-04-24T13:09:37;4.47;;;2.55;;
56943;SDS011;42848;42.524;12.052;2023-04-24T13:12:03;3.80;;;1.60;;
56943;SDS011;42848;42.524;12.052;2023-04-24T13:14:31;5.03;;;1.58;;
56943;SDS011;42848;42.524;12.052;2023-04-24T13:16:57;3.00;;;1.60;;
56943;SDS011;42848;42.524;12.052;2023-04-24T13:19:26;3.78;;;1.50;;
56943;SDS011;42848;42.524;12.052;2023-04-24T13:21:53;3.45;;;1.60;;
56943;SDS011;42848;42.524;12.052;2023-04-24T13:24:22;2.60;;;1.33;;
56943;SDS011;42848;42.524;12.052;2023-04-24T13:26:51;5.05;;;1.88;;
56943;SDS011;42848;42.524;12.052;2023-04-24T13:29:18;3.67;;;1.65;;
56943;SDS011;42848;42.524;12.052;2023-04-24T13:31:44;3.00;;;1.55;;
56943;SDS011;42848;42.524;12.052;2023-04-24T13:34:09;4.80;;;1.67;;
56943;SDS011;42848;42.524;12.052;2023-04-24T13:36:35;4.50;;;1.50;;
56943;SDS011;42848;42.524;12.052;2023-04-24T13:39:03;5.55;;;1.70;;
56943;SDS011;42848;42.524;12.052;2023-04-24T13:41:34;3.70;;;1.33;;
56943;SDS011;42848;42.524;12.052;2023-04-24T13:44:01;3.22;;;1.20;;
56943;SDS011;42848;42.524;12.052;2023-04-24T13:46:31;3.40;;;1.40;;
56943;SDS011;42848;42.524;12.052;2023-04-24T13:48:57;2.95;;;1.13;;
56943;SDS011;42848;42.524;12.052;2023-04-24T13:51:24;5.60;;;1.38;;
56943;SDS011;42848;42.524;12.052;2023-04-24T13:53:54;2.40;;;1.00;;
56943;SDS011;42848;42.524;12.052;2023-04-24T13:56:20;1.77;;;0.95;;
56943;SDS011;42848;42.524;12.052;2023-04-24T13:58:47;6.20;;;1.00;;
56943;SDS011;42848;42.524;12.052;2023-04-24T14:01:13;2.88;;;1.20;;
56943;SDS011;42848;42.524;12.052;2023-04-24T14:03:40;2.17;;;1.00;;
56943;SDS011;42848;42.524;12.052;2023-04-24T14:06:08;2.33;;;1.00;;
56943;SDS011;42848;42.524;12.052;2023-04-24T14:08:34;2.72;;;1.00;;
56943;SDS011;42848;42.524;12.052;2023-04-24T14:10:59;2.47;;;0.93;;
56943;SDS011;42848;42.524;12.052;2023-04-24T14:13:25;3.63;;;0.80;;
56943;SDS011;42848;42.524;12.052;2023-04-24T14:15:52;3.25;;;0.70;;
56943;SDS011;42848;42.524;12.052;2023-04-24T14:18:18;3.05;;;0.93;;
56943;SDS011;42848;42.524;12.052;2023-04-24T14:20:44;3.25;;;1.15;;
56943;SDS011;42848;42.524;12.052;2023-04-24T14:23:10;2.83;;;1.00;;
56943;SDS011;42848;42.524;12.052;2023-04-24T14:25:36;3.63;;;1.10;;
56943;SDS011;42848;42.524;12.052;2023-04-24T14:28:02;3.63;;;1.00;;
56943;SDS011;42848;42.524;12.052;2023-04-24T14:30:27;4.45;;;2.28;;
56943;SDS011;42848;42.524;12.052;2023-04-24T14:32:53;3.55;;;1.33;;
56943;SDS011;42848;42.524;12.052;2023-04-24T14:35:19;3.20;;;1.20;;
56943;SDS011;42848;42.524;12.052;2023-04-24T14:37:44;2.90;;;1.02;;
56943;SDS011;42848;42.524;12.052;2023-04-24T14:40:10;2.80;;;1.00;;
56943;SDS011;42848;42.524;12.052;2023-04-24T14:42:36;3.10;;;1.10;;